Time;durP1;ratioP1;P1;durP2;ratioP2;P2;SDS_P1;SDS_P2;PMS_P1;PMS_P2;Temp;Humidity;BMP_temperature;BMP_pressure;BME280_temperature;BME280_humidity;BME280_pressure;Samples;Min_cycle;Max_cycle;Signal;HPM_P1;HPM_P2
2021/12/14 00:00:48;;;;;;;17.80;10.00;;;6.70;99.90;;;;;;4889751;29;20044;-77
2021/12/14 00:03:17;;;;;;;19.20;10.25;;;6.70;99.90;;;;;;4883548;29;20037;-78
2021/12/14 00:05:43;;;;;;;18.58;10.35;;;6.70;99.90;;;;;;4890218;29;20295;-78
2021/12/14 00:08:15;;;;;;;18.13;10.45;;;6.70;99.90;;;;;;4891300;29;20044;-77
2021/12/14 00:11:07;;;;;;;19.77;10.73;;;6.60;99.90;;;;;;4890648;29;20209;-79
2021/12/14 00:16:07;;;;;;;18.40;9.45;;;6.70;99.90;;;;;;4883512;29;20112;-78
2021/12/14 00:18:34;;;;;;;17.60;9.47;;;6.60;99.90;;;;;;4891369;29;20100;-77
2021/12/14 00:21:08;;;;;;;19.60;9.98;;;6.60;99.90;;;;;;4890799;29;20057;-77
2021/12/14 00:26:22;;;;;;;18.33;9.00;;;6.60;99.90;;;;;;4872007;29;20049;-79
2021/12/14 00:28:50;;;;;;;15.85;8.55;;;6.60;99.90;;;;;;4889988;29;20351;-78
2021/12/14 00:31:18;;;;;;;17.35;9.18;;;6.60;99.90;;;;;;4890613;29;20045;-77
2021/12/14 00:33:53;;;;;;;14.00;8.02;;;6.60;99.90;;;;;;4890120;29;20032;-78
2021/12/14 00:36:21;;;;;;;14.02;7.65;;;6.50;99.90;;;;;;4888713;29;20045;-77
2021/12/14 00:38:54;;;;;;;15.63;7.93;;;6.50;99.90;;;;;;4890622;29;20307;-77
2021/12/14 00:41:23;;;;;;;16.48;7.90;;;6.50;99.90;;;;;;4891164;29;20036;-76
2021/12/14 00:43:49;;;;;;;15.00;8.25;;;6.50;99.90;;;;;;4903774;29;20033;-78
2021/12/14 00:46:17;;;;;;;15.25;8.38;;;6.50;99.90;;;;;;4884276;29;20383;-76
2021/12/14 00:48:44;;;;;;;14.18;7.85;;;6.50;99.90;;;;;;4884173;29;20045;-77
2021/12/14 00:51:12;;;;;;;15.40;8.50;;;6.50;99.90;;;;;;4901348;29;20045;-76
2021/12/14 00:53:38;;;;;;;16.65;8.52;;;6.40;99.90;;;;;;4889443;29;20052;-76
2021/12/14 00:56:09;;;;;;;16.40;8.02;;;6.40;99.90;;;;;;4891132;29;20277;-77
2021/12/14 00:58:36;;;;;;;15.07;8.07;;;6.40;99.90;;;;;;4890791;29;20033;-78
2021/12/14 01:01:14;;;;;;;16.05;8.32;;;6.40;99.90;;;;;;4903976;29;20383;-77
2021/12/14 01:03:43;;;;;;;;;;;6.40;99.90;;;;;;4905240;29;20025;-75
2021/12/14 01:06:11;;;;;;;;;;;6.30;99.90;;;;;;4905414;29;19912;-76
2021/12/14 01:08:39;;;;;;;;;;;6.40;99.90;;;;;;4903097;29;19912;-76
2021/12/14 01:11:11;;;;;;;;;;;6.30;99.90;;;;;;4890022;29;19904;-75
2021/12/14 01:13:43;;;;;;;;;;;6.30;99.90;;;;;;4910969;29;19922;-77
2021/12/14 01:16:19;;;;;;;;;;;6.30;99.90;;;;;;4898445;29;19919;-77
2021/12/14 01:19:00;;;;;;;;;;;6.30;99.90;;;;;;4889924;29;19911;-76
2021/12/14 01:24:07;;;;;;;;;;;6.30;99.90;;;;;;4888106;29;20120;-78
2021/12/14 01:26:35;;;;;;;;;;;6.30;99.90;;;;;;4877394;29;19963;-78
2021/12/14 01:29:02;;;;;;;;;;;6.30;99.90;;;;;;4886918;29;20044;-77
2021/12/14 01:31:35;;;;;;;;;;;6.30;99.90;;;;;;4875694;29;20126;-77
2021/12/14 01:34:03;;;;;;;;;;;6.30;99.90;;;;;;4901311;29;19926;-78
2021/12/14 01:36:39;;;;;;;;;;;6.30;99.90;;;;;;4886055;29;19918;-76
2021/12/14 01:41:47;;;;;;;;;;;6.20;99.90;;;;;;4885153;29;20194;-77
2021/12/14 01:44:14;;;;;;;;;;;6.20;99.90;;;;;;4902143;29;19918;-77
2021/12/14 01:46:52;;;;;;;;;;;6.20;99.90;;;;;;4883637;29;19919;-78
2021/12/14 01:49:37;;;;;;;;;;;6.20;99.90;;;;;;4885428;29;20075;-78
2021/12/14 01:52:36;;;;;;;;;;;6.20;99.90;;;;;;4864113;29;19912;-75
2021/12/14 01:55:07;;;;;;;;;;;6.30;99.90;;;;;;4847842;29;19920;-76
2021/12/14 01:57:34;;;;;;;;;;;6.30;99.90;;;;;;4848711;29;19916;-76
2021/12/14 02:00:01;;;;;;;;;;;6.30;99.90;;;;;;4857588;29;19912;-77
2021/12/14 02:02:40;;;;;;;;;;;6.30;99.90;;;;;;4885146;29;19939;-77
2021/12/14 02:05:09;;;;;;;;;;;6.30;99.90;;;;;;4870812;29;19927;-76
2021/12/14 02:07:35;;;;;;;;;;;6.30;99.90;;;;;;4870010;29;19952;-75
2021/12/14 02:10:08;;;;;;;;;;;6.40;99.90;;;;;;4869759;29;20191;-76
2021/12/14 02:12:33;;;;;;;;;;;6.40;99.90;;;;;;4878964;29;19978;-77
2021/12/14 02:15:08;;;;;;;;;;;6.40;99.90;;;;;;4885203;29;19971;-76
2021/12/14 02:17:34;;;;;;;;;;;6.40;99.90;;;;;;4888006;29;19907;-76
2021/12/14 02:20:00;;;;;;;;;;;6.40;99.90;;;;;;4888906;29;19918;-76
2021/12/14 02:22:26;;;;;;;;;;;6.40;99.90;;;;;;4903751;29;19942;-77
2021/12/14 02:24:52;;;;;;;;;;;6.40;99.90;;;;;;4896385;29;19916;-76
2021/12/14 02:27:18;;;;;;;;;;;6.40;99.90;;;;;;4898941;29;19982;-77
2021/12/14 02:29:47;;;;;;;;;;;6.50;99.90;;;;;;4888152;29;19911;-76
2021/12/14 02:32:15;;;;;;;;;;;6.50;99.90;;;;;;4887896;29;19908;-77
2021/12/14 02:34:54;;;;;;;;;;;6.50;99.90;;;;;;4889800;29;19950;-77
2021/12/14 02:37:34;;;;;;;;;;;6.60;99.90;;;;;;4889928;29;19908;-78
2021/12/14 02:40:03;;;;;;;;;;;6.60;99.90;;;;;;4903022;29;19907;-78
2021/12/14 02:42:32;;;;;;;;;;;6.60;99.90;;;;;;4901594;29;19903;-76
2021/12/14 02:44:58;;;;;;;;;;;6.60;99.90;;;;;;4886238;29;20048;-77
2021/12/14 02:47:24;;;;;;;;;;;6.60;99.90;;;;;;4888289;29;19908;-75
2021/12/14 02:49:50;;;;;;;;;;;6.70;99.90;;;;;;4888210;29;20083;-77
2021/12/14 02:52:25;;;;;;;;;;;6.70;99.90;;;;;;4895851;29;19955;-77
2021/12/14 02:54:57;;;;;;;;;;;6.70;99.90;;;;;;4902909;29;19911;-77
2021/12/14 02:57:31;;;;;;;;;;;6.70;99.90;;;;;;4884913;29;20007;-77
2021/12/14 02:59:57;;;;;;;;;;;6.70;99.90;;;;;;4868562;29;19974;-78
2021/12/14 03:02:25;;;;;;;;;;;6.70;99.90;;;;;;4905736;29;19908;-78
2021/12/14 03:04:52;;;;;;;;;;;6.80;99.90;;;;;;4889544;29;19904;-78
2021/12/14 03:07:21;;;;;;;;;;;6.80;99.90;;;;;;4889997;29;19907;-78
2021/12/14 03:12:20;;;;;;;;;;;6.80;99.90;;;;;;4923197;29;19923;-78
2021/12/14 03:14:48;;;;;;;;;;;6.70;99.90;;;;;;4908680;29;19908;-78
2021/12/14 03:17:14;;;;;;;;;;;6.70;99.90;;;;;;4900800;29;20245;-78
2021/12/14 03:19:40;;;;;;;;;;;6.60;99.90;;;;;;4904933;29;20157;-76
2021/12/14 03:22:19;;;;;;;;;;;6.50;99.90;;;;;;4904955;29;19914;-79
2021/12/14 03:24:45;;;;;;;;;;;6.40;99.90;;;;;;4905226;29;19907;-76
2021/12/14 03:27:10;;;;;;;;;;;6.40;99.90;;;;;;4888803;29;20197;-75
2021/12/14 03:29:36;;;;;;;;;;;6.40;99.90;;;;;;4905433;29;19908;-77
2021/12/14 03:32:02;;;;;;;;;;;6.30;99.90;;;;;;4888824;29;19908;-77
2021/12/14 03:34:36;;;;;;;;;;;6.30;99.90;;;;;;4878538;29;19966;-77
2021/12/14 03:37:28;;;;;;;;;;;6.20;99.90;;;;;;4902879;29;19908;-78
2021/12/14 03:39:58;;;;;;;;;;;6.30;99.90;;;;;;4884107;29;20179;-75
2021/12/14 03:42:35;;;;;;;;;;;6.30;99.90;;;;;;4887362;29;19915;-76
2021/12/14 03:45:12;;;;;;;;;;;6.20;99.90;;;;;;4886650;29;19938;-77
2021/12/14 03:47:40;;;;;;;;;;;6.20;99.90;;;;;;4903499;29;19914;-77
2021/12/14 03:50:06;;;;;;;;;;;6.20;99.90;;;;;;4887664;29;19943;-77
2021/12/14 03:52:33;;;;;;;;;;;6.10;99.90;;;;;;4887194;29;20194;-77
2021/12/14 03:55:02;;;;;;;;;;;6.00;99.90;;;;;;4881826;29;19908;-79
2021/12/14 03:57:28;;;;;;;;;;;5.90;99.90;;;;;;4903154;29;19951;-77
2021/12/14 03:59:56;;;;;;;;;;;5.90;99.90;;;;;;4902363;29;19927;-75
2021/12/14 04:02:22;;;;;;;;;;;5.80;99.90;;;;;;4902700;29;19907;-78
2021/12/14 04:04:53;;;;;;;;;;;5.80;99.90;;;;;;4900838;29;19907;-77
2021/12/14 04:07:20;;;;;;;;;;;5.80;99.90;;;;;;4883663;29;19912;-76
2021/12/14 04:09:56;;;;;;;;;;;5.70;99.90;;;;;;4883489;29;19948;-76
2021/12/14 04:12:22;;;;;;;;;;;5.70;99.90;;;;;;4871274;29;19908;-77
2021/12/14 04:14:49;;;;;;;;;;;5.70;99.90;;;;;;4874471;29;19919;-76
2021/12/14 04:17:18;;;;;;;;;;;5.60;99.90;;;;;;4888912;29;19915;-76
2021/12/14 04:19:44;;;;;;;;;;;5.60;99.90;;;;;;4905591;29;19946;-77
2021/12/14 04:22:16;;;;;;;;;;;5.60;99.90;;;;;;4890882;29;19931;-75
2021/12/14 04:24:43;;;;;;;;;;;5.60;99.90;;;;;;4905862;29;19908;-77
2021/12/14 04:27:13;;;;;;;;;;;5.60;99.90;;;;;;4905591;29;19987;-79
2021/12/14 04:29:39;;;;;;;;;;;5.60;99.90;;;;;;4906996;29;19908;-76
2021/12/14 04:32:06;;;;;;;;;;;5.50;99.90;;;;;;4913835;29;19945;-76
2021/12/14 04:34:33;;;;;;;;;;;5.60;99.90;;;;;;4911744;29;20182;-76
2021/12/14 04:37:01;;;;;;;;;;;5.60;99.90;;;;;;4895415;29;19987;-75
2021/12/14 04:39:39;;;;;;;;;;;5.60;99.90;;;;;;4887632;29;19970;-77
2021/12/14 04:53:21;;;;;;;;;;;5.60;99.90;;;;;;4871678;29;20150;-76
2021/12/14 04:55:47;;;;;;;;;;;5.50;99.90;;;;;;4886847;29;19914;-76
2021/12/14 04:58:14;;;;;;;;;;;5.50;99.90;;;;;;4888823;29;20214;-76
2021/12/14 05:00:47;;;;;;;;;;;5.50;99.90;;;;;;4889934;29;19918;-76
2021/12/14 05:03:30;;;;;;;;;;;5.50;99.90;;;;;;4904230;29;19968;-77
2021/12/14 05:06:10;;;;;;;;;;;5.40;99.90;;;;;;4898342;29;19924;-78
2021/12/14 05:11:05;;;;;;;;;;;5.30;99.90;;;;;;4883518;29;19904;-77
2021/12/14 05:13:35;;;;;;;;;;;5.30;99.90;;;;;;4888324;29;20090;-76
2021/12/14 05:16:03;;;;;;;;;;;5.30;99.90;;;;;;4890075;29;20194;-77
2021/12/14 05:18:29;;;;;;;;;;;5.30;99.90;;;;;;4875056;29;19908;-77
2021/12/14 05:20:57;;;;;;;;;;;5.30;99.90;;;;;;4885606;29;19994;-77
2021/12/14 05:23:25;;;;;;;;;;;5.30;99.90;;;;;;4888751;29;19907;-76
2021/12/14 05:25:51;;;;;;;;;;;5.30;99.90;;;;;;4885914;29;20236;-77
2021/12/14 05:28:19;;;;;;;;;;;5.40;99.90;;;;;;4885808;29;20139;-76
2021/12/14 05:30:48;;;;;;;;;;;5.40;99.90;;;;;;4870854;29;20187;-76
2021/12/14 05:33:34;;;;;;;;;;;5.50;99.90;;;;;;4870926;29;20025;-78
2021/12/14 05:36:12;;;;;;;;;;;5.50;99.90;;;;;;4870344;29;19986;-77
2021/12/14 05:44:21;;;;;;;;;;;5.40;99.90;;;;;;4870288;29;20056;-77
2021/12/14 05:46:52;;;;;;;;;;;5.40;99.90;;;;;;4885838;29;20103;-76
2021/12/14 05:49:59;;;;;;;;;;;5.40;99.90;;;;;;4879273;29;20023;-77
2021/12/14 05:52:27;;;;;;;;;;;5.20;99.90;;;;;;4871340;29;19931;-76
2021/12/14 05:54:55;;;;;;;;;;;5.30;99.90;;;;;;4888648;29;19907;-77
2021/12/14 05:57:25;;;;;;;;;;;5.30;99.90;;;;;;4889346;29;19915;-79
2021/12/14 05:59:52;;;;;;;;;;;5.20;99.90;;;;;;4866226;29;20188;-76
2021/12/14 06:02:19;;;;;;;;;;;5.30;99.90;;;;;;4876753;29;19978;-77
2021/12/14 06:04:48;;;;;;;;;;;5.20;99.90;;;;;;4894925;29;20684;-76
2021/12/14 06:07:16;;;;;;;;;;;5.20;99.90;;;;;;4887978;29;20136;-77
2021/12/14 06:09:45;;;;;;;;;;;5.20;99.90;;;;;;4885502;29;20183;-77
2021/12/14 06:12:35;;;;;;;;;;;5.20;99.90;;;;;;4871109;29;19908;-77
2021/12/14 06:15:02;;;;;;;;;;;5.20;99.90;;;;;;4884950;29;20205;-76
2021/12/14 06:17:36;;;;;;;;;;;5.20;99.90;;;;;;4867843;29;19951;-77
2021/12/14 06:20:03;;;;;;;;;;;5.20;99.90;;;;;;4891291;29;19920;-77
2021/12/14 06:22:29;;;;;;;;;;;5.00;99.90;;;;;;4882092;29;19951;-75
2021/12/14 06:24:59;;;;;;;;;;;5.10;99.90;;;;;;4883321;29;19916;-76
2021/12/14 06:27:32;;;;;;;;;;;5.20;99.90;;;;;;4867833;29;20104;-77
2021/12/14 06:30:03;;;;;;;;;;;5.20;99.90;;;;;;4875195;29;19911;-76
2021/12/14 06:32:39;;;;;;;;;;;5.20;99.90;;;;;;4875994;29;19912;-76
2021/12/14 06:35:16;;;;;;;;;;;5.20;99.90;;;;;;4875709;29;19936;-76
2021/12/14 06:40:28;;;;;;;;;;;5.10;99.90;;;;;;4884036;29;20225;-75
2021/12/14 06:43:06;;;;;;;;;;;5.00;99.90;;;;;;4883167;29;20247;-77
2021/12/14 06:45:34;;;;;;;;;;;4.90;99.90;;;;;;4866749;29;19926;-78
2021/12/14 06:48:06;;;;;;;;;;;4.80;99.90;;;;;;4866460;29;19915;-77
2021/12/14 06:50:52;;;;;;;;;;;4.70;99.90;;;;;;4866737;29;19919;-76
2021/12/14 06:53:48;;;;;;;;;;;4.70;99.90;;;;;;4861259;29;19920;-76
2021/12/14 06:56:25;;;;;;;;;;;4.70;99.90;;;;;;4866801;29;19920;-78
2021/12/14 06:59:11;;;;;;;;;;;4.70;99.90;;;;;;4884433;29;19918;-77
2021/12/14 07:02:00;;;;;;;;;;;4.80;99.90;;;;;;4874493;29;19912;-77
2021/12/14 07:04:36;;;;;;;;;;;4.70;99.90;;;;;;4882963;29;20217;-76
2021/12/14 07:07:07;;;;;;;;;;;4.70;99.90;;;;;;4897638;29;20110;-77
2021/12/14 07:09:38;;;;;;;;;;;4.70;99.90;;;;;;4898565;29;20105;-76
2021/12/14 07:12:06;;;;;;;;;;;4.80;99.90;;;;;;4882602;29;19936;-76
2021/12/14 07:14:32;;;;;;;;;;;4.70;99.90;;;;;;4879751;29;19927;-76
2021/12/14 07:17:11;;;;;;;;;;;4.70;99.90;;;;;;4869735;29;20093;-78
2021/12/14 07:19:39;;;;;;;;;;;4.70;99.90;;;;;;4885774;29;19954;-77
2021/12/14 07:24:22;;;;;;;;;;;4.60;99.90;;;;;;5095537;27;19924;-77
2021/12/14 07:27:10;;;;;;;;;;;4.60;99.90;;;;;;5132173;27;20068;-76
2021/12/14 07:29:36;;;;;;;;;;;4.60;99.90;;;;;;5080121;28;19954;-77
2021/12/14 07:32:02;;;;;;;;;;;4.70;99.90;;;;;;5060621;28;19999;-76
2021/12/14 07:34:28;;;;;;;;;;;4.60;99.90;;;;;;5057222;28;19916;-79
2021/12/14 07:36:54;;;;;;;;;;;4.60;99.90;;;;;;5053981;28;19921;-79
2021/12/14 07:39:20;;;;;;;;;;;4.60;99.90;;;;;;5056168;28;19921;-76
2021/12/14 07:41:47;;;;;;;;;;;4.70;99.90;;;;;;5077345;28;19919;-75
2021/12/14 07:44:29;;;;;;;;;;;4.60;99.90;;;;;;5056673;28;20084;-78
2021/12/14 07:46:57;;;;;;;;;;;4.70;99.90;;;;;;5074082;28;19919;-76
2021/12/14 07:49:25;;;;;;;;;;;4.70;99.90;;;;;;5088625;28;20346;-78
2021/12/14 07:51:53;;;;;;;;;;;4.70;99.90;;;;;;5068740;28;19912;-77
2021/12/14 07:54:24;;;;;;;;;;;4.70;99.90;;;;;;5071034;28;20241;-77
2021/12/14 07:56:51;;;;;;;;;;;4.70;99.90;;;;;;5064887;28;19912;-77
2021/12/14 07:59:17;;;;;;;;;;;4.70;99.90;;;;;;5074286;28;20035;-77
2021/12/14 08:01:43;;;;;;;;;;;4.70;99.90;;;;;;5062728;28;20195;-75
2021/12/14 08:04:12;;;;;;;;;;;4.70;99.90;;;;;;5053991;28;19943;-78
2021/12/14 08:06:56;;;;;;;;;;;4.80;99.90;;;;;;5052825;28;19955;-79
2021/12/14 08:09:33;;;;;;;;;;;4.80;99.90;;;;;;5056425;28;20097;-78
2021/12/14 08:12:01;;;;;;;;;;;4.70;99.90;;;;;;5072673;28;19986;-78
2021/12/14 08:14:27;;;;;;;;;;;4.80;99.90;;;;;;5055665;28;20103;-78
2021/12/14 08:16:57;;;;;;;;;;;4.70;99.90;;;;;;5035318;28;19920;-77
2021/12/14 08:19:26;;;;;;;;;;;4.70;99.90;;;;;;5051651;28;20197;-78
2021/12/14 08:21:52;;;;;;;;;;;4.80;99.90;;;;;;5067536;28;20225;-77
2021/12/14 08:24:18;;;;;;;;;;;4.70;99.90;;;;;;5062730;28;19920;-78
2021/12/14 08:26:48;;;;;;;;;;;4.60;99.90;;;;;;5052485;28;19920;-77
2021/12/14 08:29:15;;;;;;;;;;;4.60;99.90;;;;;;5052393;28;19913;-75
2021/12/14 08:31:52;;;;;;;;;;;4.70;99.90;;;;;;5050728;28;20218;-76
2021/12/14 08:34:20;;;;;;;;;;;4.80;99.90;;;;;;5045583;28;19936;-76
2021/12/14 08:36:48;;;;;;;;;;;4.90;99.90;;;;;;5038620;28;20191;-76
2021/12/14 08:39:19;;;;;;;;;;;5.10;99.90;;;;;;5038746;28;19940;-78
2021/12/14 08:41:58;;;;;;;;;;;5.20;99.90;;;;;;5037385;28;19921;-77
2021/12/14 08:44:35;;;;;;;;;;;5.20;99.90;;;;;;5056247;28;20084;-77
2021/12/14 08:47:01;;;;;;;;;;;5.50;99.90;;;;;;5057032;28;20153;-77
2021/12/14 08:49:27;;;;;;;;;;;5.60;99.90;;;;;;5058295;28;19912;-77
2021/12/14 08:51:53;;;;;;;;;;;5.60;99.90;;;;;;5044886;28;19920;-77
2021/12/14 08:54:27;;;;;;;;;;;5.50;99.90;;;;;;5038223;28;19972;-77
2021/12/14 08:56:58;;;;;;;;;;;5.60;99.90;;;;;;5037991;28;19921;-77
2021/12/14 08:59:24;;;;;;;;;;;5.70;99.90;;;;;;5037459;28;20196;-77
2021/12/14 09:01:50;;;;;;;;;;;5.60;99.90;;;;;;5052146;28;20180;-77
2021/12/14 09:04:19;;;;;;;;;;;5.70;99.90;;;;;;5035469;28;19972;-74
2021/12/14 09:06:46;;;;;;;;;;;5.80;99.90;;;;;;5036765;28;19912;-75
2021/12/14 09:09:14;;;;;;;;;;;5.90;99.90;;;;;;5053661;28;19917;-75
2021/12/14 09:11:41;;;;;;;;;;;6.00;99.90;;;;;;5037056;28;19929;-77
2021/12/14 09:14:13;;;;;;;;;;;6.00;99.90;;;;;;5034375;28;19922;-76
2021/12/14 09:16:40;;;;;;;;;;;6.10;99.90;;;;;;5036046;28;19959;-77
2021/12/14 09:19:08;;;;;;;;;;;6.20;99.90;;;;;;5034287;28;20123;-76
2021/12/14 09:21:37;;;;;;;;;;;6.40;99.90;;;;;;5038408;28;20200;-75
2021/12/14 09:24:05;;;;;;;;;;;6.50;99.90;;;;;;5029903;28;19932;-75
2021/12/14 09:26:34;;;;;;;;;;;6.50;99.90;;;;;;5032757;28;19960;-75
2021/12/14 09:29:01;;;;;;;;;;;6.60;99.90;;;;;;5050371;28;19908;-76
2021/12/14 09:31:30;;;;;;;;;;;6.80;99.90;;;;;;5053651;28;19913;-77
2021/12/14 09:33:58;;;;;;;;;;;6.90;99.90;;;;;;5055214;28;19912;-76
2021/12/14 09:36:25;;;;;;;;;;;7.00;99.90;;;;;;5054007;28;19997;-76
2021/12/14 09:38:55;;;;;;;;;;;7.30;99.90;;;;;;5054060;28;19987;-76
2021/12/14 09:41:23;;;;;;;;;;;7.40;99.90;;;;;;5050915;28;19912;-77
2021/12/14 09:43:49;;;;;;;;;;;7.60;99.90;;;;;;5055872;28;19921;-77
2021/12/14 09:46:16;;;;;;;;;;;7.90;99.90;;;;;;5046876;28;19916;-77
2021/12/14 09:48:44;;;;;;;;;;;8.30;99.90;;;;;;5033510;28;20298;-77
2021/12/14 09:51:11;;;;;;;;;;;8.60;99.90;;;;;;5037643;28;19914;-77
2021/12/14 09:53:39;;;;;;;;;;;8.80;99.90;;;;;;5035112;28;19920;-76
2021/12/14 09:56:09;;;;;;;;;;;8.70;99.90;;;;;;5034117;28;20019;-77
2021/12/14 09:58:40;;;;;;;;;;;8.70;99.90;;;;;;5035215;28;20112;-75
2021/12/14 10:01:08;;;;;;;;;;;8.60;99.90;;;;;;5048173;28;19924;-78
2021/12/14 10:03:34;;;;;;;;;;;8.30;99.90;;;;;;5031407;28;19933;-77
2021/12/14 10:06:05;;;;;;;;;;;8.10;99.90;;;;;;5048714;28;19913;-77
2021/12/14 10:08:36;;;;;;;;;;;8.20;99.90;;;;;;5053399;28;19988;-77
2021/12/14 10:11:07;;;;;;;;;;;8.30;99.90;;;;;;5009552;28;20124;-75
2021/12/14 10:13:34;;;;;;;;;;;8.30;99.90;;;;;;5031271;28;19920;-77
2021/12/14 10:16:00;;;;;;;;;;;8.40;99.90;;;;;;5034312;28;19936;-76
2021/12/14 10:18:32;;;;;;;;;;;8.60;99.90;;;;;;5032162;28;19913;-76
2021/12/14 10:21:01;;;;;;;;;;;8.50;99.90;;;;;;5022743;28;21108;-78
2021/12/14 10:23:27;;;;;;;;;;;8.50;99.90;;;;;;5050375;28;19921;-78
2021/12/14 10:25:54;;;;;;;;;;;8.40;99.90;;;;;;5042945;28;19949;-78
2021/12/14 10:28:22;;;;;;;;;;;8.50;99.90;;;;;;5029468;28;20342;-78
2021/12/14 10:30:54;;;;;;;;;;;8.50;99.90;;;;;;5052684;28;19912;-76
2021/12/14 10:33:20;;;;;;;;;;;8.80;99.90;;;;;;5063624;28;19920;-77
2021/12/14 10:35:50;;;;;;;;;;;8.70;99.90;;;;;;5040787;28;20127;-77
2021/12/14 10:38:26;;;;;;;;;;;9.00;99.90;;;;;;5046855;28;19913;-79
2021/12/14 10:43:41;;;;;;;;;;;9.00;99.90;;;;;;5054963;28;20226;-76
2021/12/14 10:46:10;;;;;;;;;;;9.00;99.90;;;;;;5052449;28;19913;-79
2021/12/14 10:48:38;;;;;;;;;;;9.00;99.90;;;;;;5054472;28;20215;-76
2021/12/14 10:51:05;;;;;;;;;;;9.10;99.90;;;;;;5052204;28;20119;-76
2021/12/14 10:53:31;;;;;;;;;;;9.50;99.90;;;;;;5051222;28;19913;-78
2021/12/14 10:56:03;;;;;;;;;;;9.90;99.90;;;;;;5055042;28;19968;-78
2021/12/14 10:58:29;;;;;;;;;;;10.30;99.90;;;;;;5037265;28;19936;-77
2021/12/14 11:01:00;;;;;;;;;;;10.30;99.90;;;;;;5032094;28;19980;-78
2021/12/14 11:03:27;;;;;;;;;;;10.90;99.90;;;;;;5029110;28;19927;-78
2021/12/14 11:05:57;;;;;;;;;;;11.00;99.90;;;;;;5033144;28;19957;-75
2021/12/14 11:08:47;;;;;;;;;;;10.70;99.90;;;;;;5029574;28;20004;-79
2021/12/14 11:11:15;;;;;;;;;;;10.50;99.90;;;;;;5043239;28;19912;-79
2021/12/14 11:13:43;;;;;;;;;;;10.30;99.90;;;;;;5066411;28;19972;-78
2021/12/14 11:16:21;;;;;;;;;;;10.20;99.90;;;;;;5043939;28;19923;-78
2021/12/14 11:18:48;;;;;;;;;;;10.50;99.90;;;;;;5061651;28;19976;-79
2021/12/14 11:21:15;;;;;;;;;;;10.60;99.90;;;;;;5075471;28;19920;-77
2021/12/14 11:23:42;;;;;;;;;;;10.80;99.90;;;;;;5061073;28;19939;-79
2021/12/14 11:26:08;;;;;;;;;;;11.00;99.90;;;;;;5050915;28;19913;-78
2021/12/14 11:28:51;;;;;;;;;;;11.20;99.90;;;;;;5051400;28;19920;-76
2021/12/14 11:31:20;;;;;;;;;;;11.20;99.90;;;;;;5049983;28;19925;-77
2021/12/14 11:33:46;;;;;;;;;;;11.50;99.90;;;;;;5050080;28;19961;-78
2021/12/14 11:36:19;;;;;;;;;;;11.60;99.90;;;;;;5051972;28;19920;-77
2021/12/14 11:38:45;;;;;;;;;;;11.90;99.90;;;;;;5044224;28;20134;-79
2021/12/14 11:41:26;;;;;;;;;;;12.60;99.90;;;;;;5059790;28;19913;-79
2021/12/14 11:43:53;;;;;;;;;;;12.80;99.90;;;;;;5067923;28;19928;-76
2021/12/14 11:46:20;;;;;;;;;;;12.60;99.90;;;;;;5050981;28;19952;-76
2021/12/14 11:48:46;;;;;;;;;;;13.10;99.90;;;;;;5040936;28;19992;-79
2021/12/14 11:51:12;;;;;;;;;;;12.90;99.90;;;;;;5061165;28;20068;-76
2021/12/14 11:53:38;;;;;;;;;;;13.00;99.90;;;;;;5048205;28;19920;-76
2021/12/14 11:56:04;;;;;;;;;;;12.90;99.90;;;;;;5068948;28;19917;-79
2021/12/14 11:58:36;;;;;;;;;;;12.70;99.90;;;;;;5071798;28;19912;-77
2021/12/14 12:01:08;;;;;;;;;;;12.70;99.90;;;;;;5029945;28;20015;-75
2021/12/14 12:03:46;;;;;;;;;;;13.00;99.90;;;;;;5029878;28;19921;-78
2021/12/14 12:06:24;;;;;;;;;;;13.70;99.90;;;;;;5029728;28;19913;-80
2021/12/14 12:11:40;;;;;;;;;;;15.20;99.90;;;;;;5017992;28;19928;-81
2021/12/14 12:14:18;;;;;;;;;;;15.80;99.90;;;;;;5036146;28;19909;-78
2021/12/14 12:16:44;;;;;;;;;;;15.90;99.90;;;;;;5050436;28;19920;-77
2021/12/14 12:19:16;;;;;;;;;;;16.30;99.90;;;;;;5056929;28;20207;-77
2021/12/14 12:21:43;;;;;;;;;;;15.80;99.90;;;;;;5057828;28;19940;-77
2021/12/14 12:24:27;;;;;;;;;;;15.70;99.90;;;;;;5072179;28;19979;-76
2021/12/14 12:26:53;;;;;;;;;;;15.60;99.90;;;;;;5036049;28;19921;-78
2021/12/14 12:29:25;;;;;;;;;;;15.20;99.90;;;;;;5053193;28;19935;-77
2021/12/14 12:31:59;;;;;;;;;;;15.00;99.90;;;;;;5055572;28;20080;-77
2021/12/14 12:34:34;;;;;;;;;;;14.50;99.90;;;;;;5028753;28;19979;-79
2021/12/14 12:36:59;;;;;;;;;;;14.30;99.90;;;;;;5067217;28;19913;-76
2021/12/14 12:39:29;;;;;;;;;;;14.00;99.90;;;;;;5058816;28;19913;-76
2021/12/14 12:41:58;;;;;;;;;;;13.80;99.90;;;;;;5056169;28;19915;-77
2021/12/14 12:44:33;;;;;;;;;;;13.20;99.90;;;;;;5051572;28;20013;-78
2021/12/14 12:47:00;;;;;;;;;;;13.20;99.90;;;;;;5044430;28;19920;-77
2021/12/14 12:49:26;;;;;;;;;;;13.20;99.90;;;;;;5070112;28;19912;-77
2021/12/14 12:51:55;;;;;;;;;;;13.20;99.90;;;;;;5057538;28;20233;-78
2021/12/14 12:54:21;;;;;;;;;;;13.30;99.90;;;;;;5049833;28;19920;-77
2021/12/14 12:56:51;;;;;;;;;;;13.40;99.90;;;;;;5051360;28;19913;-78
2021/12/14 12:59:36;;;;;;;;;;;13.60;99.90;;;;;;5047294;28;19931;-78
2021/12/14 13:02:12;;;;;;;;;;;13.70;99.90;;;;;;5036824;28;19919;-77
2021/12/14 13:04:42;;;;;;;;;;;13.40;99.90;;;;;;5050333;28;19913;-76
2021/12/14 13:07:09;;;;;;;;;;;13.30;99.90;;;;;;5049711;28;19940;-75
2021/12/14 13:09:53;;;;;;;;;;;13.00;99.90;;;;;;5053569;28;19912;-79
2021/12/14 13:12:37;;;;;;;;;;;12.90;99.90;;;;;;5039180;28;20206;-79
2021/12/14 13:15:03;;;;;;;;;;;12.80;99.90;;;;;;5050307;28;20000;-77
2021/12/14 13:17:29;;;;;;;;;;;12.30;99.90;;;;;;5048631;28;19913;-79
2021/12/14 13:19:59;;;;;;;;;;;12.00;99.90;;;;;;5052411;28;19935;-79
2021/12/14 13:22:24;;;;;;;;;;;11.80;99.90;;;;;;5044767;28;20111;-78
2021/12/14 13:24:51;;;;;;;;;;;11.50;99.90;;;;;;5013292;28;19925;-77
2021/12/14 13:27:22;;;;;;;;;;;11.20;99.90;;;;;;5012154;28;19914;-77
2021/12/14 13:29:50;;;;;;;;;;;10.90;99.90;;;;;;5044110;28;20100;-77
2021/12/14 13:32:19;;;;;;;;;;;10.60;99.90;;;;;;5032908;28;19951;-78
2021/12/14 13:34:53;;;;;;;;;;;10.40;99.90;;;;;;5045257;28;19956;-79
2021/12/14 13:37:31;;;;;;;;;;;10.30;99.90;;;;;;5050313;28;19944;-77
2021/12/14 13:39:57;;;;;;;;;;;10.20;99.90;;;;;;5046278;28;19913;-78
2021/12/14 13:42:34;;;;;;;;;;;10.10;99.90;;;;;;5045924;28;19921;-79
2021/12/14 13:45:00;;;;;;;;;;;9.90;99.90;;;;;;5044610;28;19913;-80
2021/12/14 13:47:27;;;;;;;;;;;9.60;99.90;;;;;;5063299;28;19916;-80
2021/12/14 13:49:55;;;;;;;;;;;9.40;99.90;;;;;;5065403;28;20203;-78
2021/12/14 13:52:21;;;;;;;;;;;9.40;99.90;;;;;;5061729;28;19913;-80
2021/12/14 13:55:05;;;;;;;;;;;9.30;99.90;;;;;;5046987;28;19913;-79
2021/12/14 13:57:31;;;;;;;;;;;9.20;99.90;;;;;;5045944;28;19921;-80
2021/12/14 13:59:57;;;;;;;;;;;9.10;99.90;;;;;;5069257;28;19916;-78
2021/12/14 14:02:22;;;;;;;;;;;9.00;99.90;;;;;;5069462;28;19916;-79
2021/12/14 14:04:48;;;;;;;;;;;9.00;99.90;;;;;;5046586;28;19945;-78
2021/12/14 14:07:14;;;;;;;;;;;8.90;99.90;;;;;;5047347;28;19919;-79
2021/12/14 14:09:41;;;;;;;;;;;8.90;99.90;;;;;;5049430;28;20091;-79
2021/12/14 14:12:12;;;;;;;;;;;8.80;99.90;;;;;;5047710;28;19913;-77
2021/12/14 14:14:38;;;;;;;;;;;8.60;99.90;;;;;;5045517;28;19920;-78
2021/12/14 14:17:05;;;;;;;;;;;8.60;99.90;;;;;;5042419;28;19988;-79
2021/12/14 14:19:36;;;;;;;;;;;8.60;99.90;;;;;;5060731;28;19925;-77
2021/12/14 14:22:09;;;;;;;;;;;8.40;99.90;;;;;;5065613;28;19913;-78
2021/12/14 14:24:36;;;;;;;;;;;8.50;99.90;;;;;;5059779;28;19976;-79
2021/12/14 14:27:04;;;;;;;;;;;8.50;99.90;;;;;;5059232;28;19940;-78
2021/12/14 14:29:43;;;;;;;;;;;8.60;99.90;;;;;;5039714;28;20179;-78
2021/12/14 14:32:35;;;;;;;;;;;8.50;99.90;;;;;;5056041;28;19912;-78
2021/12/14 14:34:56;;;;;;;;;;;8.50;99.90;;;;;;5053408;28;19913;-79
2021/12/14 14:37:30;;;;;;;;;;;8.60;99.90;;;;;;5074341;28;20230;-79
2021/12/14 14:39:57;;;;;;;;;;;8.50;99.90;;;;;;5076260;28;19969;-77
2021/12/14 14:42:25;;;;;;;;;;;8.50;99.90;;;;;;5039184;28;19927;-77
2021/12/14 14:44:52;;;;;;;;;;;8.40;99.90;;;;;;5037512;28;19925;-78
2021/12/14 14:47:30;;;;;;;;;;;8.40;99.90;;;;;;5053903;28;19913;-78
2021/12/14 14:49:56;;;;;;;;;;;8.30;99.90;;;;;;5053149;28;19988;-79
2021/12/14 14:52:21;;;;;;;;;;;8.30;99.90;;;;;;5058694;28;19913;-77
2021/12/14 14:55:11;;;;;;;;;;;8.20;99.90;;;;;;5057726;28;19972;-77
2021/12/14 14:57:38;;;;;;;;;;;8.10;99.90;;;;;;5072472;28;19972;-77
2021/12/14 15:00:06;;;;;;;;;;;7.90;99.90;;;;;;5072541;28;19913;-77
2021/12/14 15:02:35;;;;;;;;;;;7.90;99.90;;;;;;5066094;28;19917;-76
2021/12/14 15:05:08;;;;;;;;;;;7.80;99.90;;;;;;5060756;28;19909;-78
2021/12/14 15:07:53;;;;;;;;;;;7.70;99.90;;;;;;5057939;28;20095;-76
2021/12/14 15:10:20;;;;;;;;;;;7.60;99.90;;;;;;5039225;28;19928;-77
2021/12/14 15:13:07;;;;;;;;;;;7.50;99.90;;;;;;5059041;28;19913;-78
2021/12/14 15:15:33;;;;;;;;;;;7.50;99.90;;;;;;5072963;28;19926;-78
2021/12/14 15:17:59;;;;;;;;;;;7.40;99.90;;;;;;5057530;28;19944;-77
2021/12/14 15:20:29;;;;;;;;;;;7.30;99.90;;;;;;5054775;28;19941;-78